createdAt,value
2023-01-21T00:01:49.118Z,-3.66
2023-01-21T00:04:17.018Z,-3.71
2023-01-21T00:06:47.755Z,-3.76
2023-01-21T00:09:20.999Z,-3.79
2023-01-21T00:11:51.149Z,-3.79
2023-01-21T00:14:25.740Z,-3.74
2023-01-21T00:16:58.232Z,-3.64
2023-01-21T00:19:32.301Z,-3.59
2023-01-21T00:22:00.273Z,-3.61
2023-01-21T00:24:30.373Z,-3.61
2023-01-21T00:26:57.876Z,-3.59
2023-01-21T00:29:26.368Z,-3.55
2023-01-21T00:31:53.936Z,-3.52
2023-01-21T00:34:22.747Z,-3.53
2023-01-21T00:36:50.273Z,-3.52
2023-01-21T00:39:17.773Z,-3.50
2023-01-21T00:41:45.270Z,-3.47
2023-01-21T00:44:12.818Z,-3.44
2023-01-21T00:46:40.425Z,-3.40
2023-01-21T00:49:07.965Z,-3.40
2023-01-21T00:51:36.811Z,-3.39
2023-01-21T00:54:04.484Z,-3.35
2023-01-21T00:56:31.987Z,-3.29
2023-01-21T00:58:59.568Z,-3.26
2023-01-21T01:01:30.330Z,-3.22
2023-01-21T01:03:57.807Z,-3.20
2023-01-21T01:06:25.300Z,-3.21
2023-01-21T01:08:57.789Z,-3.23
2023-01-21T01:11:26.779Z,-3.24
2023-01-21T01:13:54.804Z,-3.23
2023-01-21T01:16:23.253Z,-3.26
2023-01-21T01:18:52.537Z,-3.27
2023-01-21T01:21:22.187Z,-3.28
2023-01-21T01:23:52.105Z,-3.27
2023-01-21T01:26:22.395Z,-3.28
2023-01-21T01:28:49.998Z,-3.35
2023-01-21T01:31:19.112Z,-3.41
2023-01-21T01:33:47.115Z,-3.40
2023-01-21T01:36:16.129Z,-3.45
2023-01-21T01:38:44.245Z,-3.46
2023-01-21T01:41:16.104Z,-3.46
2023-01-21T01:43:54.598Z,-3.49
2023-01-21T01:46:23.513Z,-3.53
2023-01-21T01:48:56.013Z,-3.60
2023-01-21T01:51:34.285Z,-3.64
2023-01-21T01:54:02.176Z,-3.73
2023-01-21T01:56:31.277Z,-3.81
2023-01-21T01:59:00.154Z,-3.86
2023-01-21T02:01:28.144Z,-3.95
2023-01-21T02:03:59.462Z,-4.06
2023-01-21T02:06:28.110Z,-4.16
2023-01-21T02:08:57.255Z,-4.19
2023-01-21T02:11:25.226Z,-4.21
2023-01-21T02:13:55.822Z,-4.24
2023-01-21T02:16:50.149Z,-4.23
2023-01-21T02:19:45.573Z,-4.13
2023-01-21T02:22:21.904Z,-4.12
2023-01-21T02:25:16.859Z,-4.16
2023-01-21T02:27:50.467Z,-4.22
2023-01-21T02:30:42.394Z,-4.22
2023-01-21T02:33:40.685Z,-4.25
2023-01-21T02:36:18.538Z,-4.26
2023-01-21T02:38:54.733Z,-4.19
2023-01-21T02:41:30.716Z,-4.07
2023-01-21T02:44:08.036Z,-4.09
2023-01-21T02:46:42.713Z,-4.07
2023-01-21T02:49:19.340Z,-4.00
2023-01-21T02:51:47.943Z,-3.98
2023-01-21T02:54:17.674Z,-3.98
2023-01-21T02:56:45.766Z,-3.99
2023-01-21T02:59:13.996Z,-4.00
2023-01-21T03:01:53.833Z,-3.97
2023-01-21T03:04:49.365Z,-3.98
2023-01-21T03:07:25.568Z,-3.98
2023-01-21T03:09:55.795Z,-3.98
2023-01-21T03:12:31.773Z,-4.04
2023-01-21T03:15:22.447Z,-4.12
2023-01-21T03:17:54.520Z,-4.20
2023-01-21T03:20:27.263Z,-4.14
2023-01-21T03:22:57.839Z,-4.06
2023-01-21T03:25:28.334Z,-4.12
2023-01-21T03:27:57.527Z,-4.24
2023-01-21T03:30:26.727Z,-4.36
2023-01-21T03:32:56.611Z,-4.38
2023-01-21T03:35:29.657Z,-4.37
2023-01-21T03:38:01.793Z,-4.35
2023-01-21T03:40:33.867Z,-4.38
2023-01-21T03:43:01.950Z,-4.48
2023-01-21T03:45:36.264Z,-4.45
2023-01-21T03:48:12.661Z,-4.40
2023-01-21T03:50:46.853Z,-4.37
2023-01-21T03:53:14.405Z,-4.40
2023-01-21T03:55:41.915Z,-4.43
2023-01-21T03:58:09.408Z,-4.39
2023-01-21T04:00:36.947Z,-4.34
2023-01-21T04:03:04.533Z,-4.31
2023-01-21T04:05:32.037Z,-4.35
2023-01-21T04:08:00.846Z,-4.50
2023-01-21T04:10:28.330Z,-4.63
2023-01-21T04:12:55.818Z,-4.71
2023-01-21T04:15:23.293Z,-4.78
2023-01-21T04:17:50.812Z,-4.81
2023-01-21T04:20:19.783Z,-4.85
2023-01-21T04:22:47.290Z,-4.83
2023-01-21T04:25:16.164Z,-4.77
2023-01-21T04:27:44.710Z,-4.72
2023-01-21T04:30:12.554Z,-4.70
2023-01-21T04:32:40.068Z,-4.65
2023-01-21T04:35:08.527Z,-4.54
2023-01-21T04:37:36.009Z,-4.52
2023-01-21T04:40:03.559Z,-4.54
2023-01-21T04:42:32.365Z,-4.59
2023-01-21T04:44:59.847Z,-4.64
2023-01-21T04:47:27.358Z,-4.67
2023-01-21T04:49:54.845Z,-4.67
2023-01-21T04:52:22.359Z,-4.67
2023-01-21T04:54:49.842Z,-4.67
2023-01-21T04:57:17.378Z,-4.66
2023-01-21T04:59:46.191Z,-4.68
2023-01-21T05:02:14.005Z,-4.66
2023-01-21T05:04:41.514Z,-4.69
2023-01-21T05:07:09.169Z,-4.71
2023-01-21T05:09:36.639Z,-4.73
2023-01-21T05:12:04.343Z,-4.78
2023-01-21T05:14:31.810Z,-4.81
2023-01-21T05:17:00.800Z,-4.84
2023-01-21T05:19:28.332Z,-4.82
2023-01-21T05:21:55.787Z,-4.80
2023-01-21T05:24:23.306Z,-4.76
2023-01-21T05:26:50.830Z,-4.70
2023-01-21T05:29:18.402Z,-4.65
2023-01-21T05:31:46.026Z,-4.53
2023-01-21T05:34:14.913Z,-4.41
2023-01-21T05:36:42.447Z,-4.29
2023-01-21T05:39:10.013Z,-4.22
2023-01-21T05:41:37.534Z,-4.20
2023-01-21T05:44:05.116Z,-4.12
2023-01-21T05:46:32.623Z,-4.02
2023-01-21T05:49:00.159Z,-3.93
2023-01-21T05:51:29.024Z,-3.85
2023-01-21T05:53:56.521Z,-3.81
2023-01-21T05:56:24.094Z,-3.76
2023-01-21T05:58:51.593Z,-3.67
2023-01-21T06:01:19.241Z,-3.53
2023-01-21T06:03:46.745Z,-3.40
2023-01-21T06:06:14.344Z,-3.34
2023-01-21T06:08:43.277Z,-3.35
2023-01-21T06:11:10.752Z,-3.35
2023-01-21T06:13:38.248Z,-3.31
2023-01-21T06:16:06.402Z,-3.29
2023-01-21T06:18:33.936Z,-3.27
2023-01-21T06:21:01.691Z,-3.19
2023-01-21T06:23:29.648Z,-3.08
2023-01-21T06:26:01.553Z,-2.97
2023-01-21T06:28:30.176Z,-2.88
2023-01-21T06:30:57.851Z,-2.85
2023-01-21T06:33:25.388Z,-2.78
2023-01-21T06:35:52.876Z,-2.77
2023-01-21T06:38:20.344Z,-2.72
2023-01-21T06:40:47.801Z,-2.64
2023-01-21T06:43:16.607Z,-2.57
2023-01-21T06:45:44.240Z,-2.55
2023-01-21T06:48:11.747Z,-2.55
2023-01-21T06:50:39.244Z,-2.50
2023-01-21T06:53:06.751Z,-2.46
2023-01-21T06:55:34.213Z,-2.43
2023-01-21T06:58:01.711Z,-2.38
2023-01-21T07:00:30.996Z,-2.33
2023-01-21T07:02:59.148Z,-2.31
2023-01-21T07:05:27.529Z,-2.24
2023-01-21T07:07:55.486Z,-2.19
2023-01-21T07:10:23.073Z,-2.21
2023-01-21T07:12:50.714Z,-2.20
2023-01-21T07:15:18.853Z,-2.21
2023-01-21T07:17:48.000Z,-2.21
2023-01-21T07:20:15.809Z,-2.19
2023-01-21T07:22:43.293Z,-2.17
2023-01-21T07:25:11.132Z,-2.14
2023-01-21T07:27:38.807Z,-2.11
2023-01-21T07:30:07.527Z,-2.04
2023-01-21T07:32:35.025Z,-1.97
2023-01-21T07:35:03.852Z,-1.94
2023-01-21T07:37:31.549Z,-1.90
2023-01-21T07:39:59.110Z,-1.88
2023-01-21T07:42:26.710Z,-1.88
2023-01-21T07:44:54.210Z,-1.91
2023-01-21T07:47:21.687Z,-1.88
2023-01-21T07:49:49.885Z,-1.81
2023-01-21T07:52:18.759Z,-1.78
2023-01-21T07:54:46.213Z,-1.75
2023-01-21T07:57:14.527Z,-1.68
2023-01-21T07:59:42.121Z,-1.62
2023-01-21T08:02:11.190Z,-1.63
2023-01-21T08:04:38.736Z,-1.63
2023-01-21T08:07:11.915Z,-1.61
2023-01-21T08:09:41.741Z,-1.60
2023-01-21T08:12:10.565Z,-1.59
2023-01-21T08:14:38.696Z,-1.59
2023-01-21T08:17:06.193Z,-1.58
2023-01-21T08:19:33.701Z,-1.56
2023-01-21T08:22:01.188Z,-1.55
2023-01-21T08:24:28.770Z,-1.52
2023-01-21T08:27:00.265Z,-1.47
2023-01-21T08:29:28.517Z,-1.44
2023-01-21T08:31:56.127Z,-1.45
2023-01-21T08:34:23.704Z,-1.45
2023-01-21T08:36:51.192Z,-1.44
2023-01-21T08:39:18.836Z,-1.44
2023-01-21T08:41:46.385Z,-1.42
2023-01-21T08:44:15.225Z,-1.42
2023-01-21T08:46:42.699Z,-1.37
2023-01-21T08:49:10.209Z,-1.35
2023-01-21T08:51:37.682Z,-1.33
2023-01-21T08:54:05.518Z,-1.33
2023-01-21T08:56:33.082Z,-1.28
2023-01-21T08:59:02.433Z,-1.25
2023-01-21T09:01:31.299Z,-1.22
2023-01-21T09:04:00.206Z,-1.15
2023-01-21T09:06:29.735Z,-1.10
2023-01-21T09:08:58.361Z,-1.07
2023-01-21T09:11:26.353Z,-1.07
2023-01-21T09:13:53.966Z,-1.06
2023-01-21T09:16:23.745Z,-1.01
2023-01-21T09:18:52.609Z,-0.91
2023-01-21T09:21:20.289Z,-0.87
2023-01-21T09:23:47.795Z,-0.81
2023-01-21T09:26:17.375Z,-0.80
2023-01-21T09:28:46.338Z,-0.75
2023-01-21T09:31:16.394Z,-0.74
2023-01-21T09:33:47.719Z,-0.70
2023-01-21T09:36:19.059Z,-0.63
2023-01-21T09:38:48.321Z,-0.62
2023-01-21T09:41:28.439Z,-0.63
2023-01-21T09:44:03.664Z,-0.62
2023-01-21T09:46:37.076Z,-0.60
2023-01-21T09:49:07.819Z,-0.60
2023-01-21T09:51:45.976Z,-0.63
2023-01-21T09:54:20.233Z,-0.64
2023-01-21T09:57:02.745Z,-0.64
2023-01-21T09:59:44.100Z,-0.65
2023-01-21T10:02:22.575Z,-0.65
2023-01-21T10:05:00.828Z,-0.66
2023-01-21T10:07:35.081Z,-0.67
2023-01-21T10:10:14.971Z,-0.68
2023-01-21T10:12:59.961Z,-0.70
2023-01-21T10:15:51.015Z,-0.70
2023-01-21T10:18:23.555Z,-0.68
2023-01-21T10:20:55.500Z,-0.65
2023-01-21T10:23:28.286Z,-0.67
2023-01-21T10:25:57.071Z,-0.70
2023-01-21T10:28:26.609Z,-0.77
2023-01-21T10:30:55.890Z,-0.80
2023-01-21T10:33:25.539Z,-0.81
2023-01-21T10:36:20.419Z,-0.75
2023-01-21T10:38:57.098Z,-0.69
2023-01-21T10:41:45.100Z,-0.66
2023-01-21T10:44:23.702Z,-0.64
2023-01-21T10:46:58.997Z,-0.60
2023-01-21T10:49:35.174Z,-0.58
2023-01-21T10:52:07.227Z,-0.58
2023-01-21T10:54:47.848Z,-0.58
2023-01-21T10:57:33.007Z,-0.57
2023-01-21T11:00:02.743Z,-0.57
2023-01-21T11:02:32.361Z,-0.58
2023-01-21T11:05:03.124Z,-0.56
2023-01-21T11:07:35.824Z,-0.60
2023-01-21T11:10:06.890Z,-0.58
2023-01-21T11:12:34.545Z,-0.60
2023-01-21T11:15:08.504Z,-0.57
2023-01-21T11:17:37.999Z,-0.52
2023-01-21T11:20:16.417Z,-0.48
2023-01-21T11:22:46.210Z,-0.46
2023-01-21T11:25:27.087Z,-0.42
2023-01-21T11:27:54.752Z,-0.39
2023-01-21T11:30:50.031Z,-0.36
2023-01-21T11:33:26.461Z,-0.31
2023-01-21T11:35:55.767Z,-0.27
2023-01-21T11:38:41.449Z,-0.23
2023-01-21T11:41:19.231Z,-0.22
2023-01-21T11:43:48.428Z,-0.17
2023-01-21T11:46:27.535Z,-0.15
2023-01-21T11:48:56.717Z,-0.15
2023-01-21T11:51:24.363Z,-0.15
2023-01-21T11:54:13.042Z,-0.21
2023-01-21T11:56:44.194Z,-0.22
2023-01-21T11:59:19.608Z,-0.26
2023-01-21T12:01:53.520Z,-0.31
2023-01-21T12:04:21.099Z,-0.33
2023-01-21T12:06:51.631Z,-0.33
2023-01-21T12:09:21.067Z,-0.25
2023-01-21T12:12:09.571Z,-0.26
2023-01-21T12:14:45.921Z,-0.30
2023-01-21T12:17:21.988Z,-0.32
2023-01-21T12:20:01.797Z,-0.27
2023-01-21T12:22:43.488Z,-0.21
2023-01-21T12:25:22.511Z,-0.18
2023-01-21T12:28:04.019Z,-0.12
2023-01-21T12:30:45.908Z,-0.10
2023-01-21T12:33:19.720Z,-0.11
2023-01-21T12:35:57.718Z,-0.13
2023-01-21T12:38:31.493Z,-0.22
2023-01-21T12:41:07.970Z,-0.25
2023-01-21T12:43:45.550Z,-0.27
2023-01-21T12:46:20.222Z,-0.32
2023-01-21T12:48:54.067Z,-0.32
2023-01-21T12:51:29.923Z,-0.34
2023-01-21T12:54:06.672Z,-0.36
2023-01-21T12:56:59.388Z,-0.38
2023-01-21T12:59:36.718Z,-0.42
2023-01-21T13:02:21.798Z,-0.47
2023-01-21T13:05:01.587Z,-0.52
2023-01-21T13:07:44.449Z,-0.53
2023-01-21T13:10:19.188Z,-0.55
2023-01-21T13:12:58.644Z,-0.55
2023-01-21T13:15:38.072Z,-0.53
2023-01-21T13:18:15.155Z,-0.49
2023-01-21T13:20:56.705Z,-0.46
2023-01-21T13:23:36.545Z,-0.44
2023-01-21T13:26:15.017Z,-0.43
2023-01-21T13:28:54.876Z,-0.42
2023-01-21T13:31:39.024Z,-0.44
2023-01-21T13:34:22.656Z,-0.45
2023-01-21T13:37:10.343Z,-0.49
2023-01-21T13:39:52.413Z,-0.49
2023-01-21T13:42:43.338Z,-0.46
2023-01-21T13:45:38.143Z,-0.48
2023-01-21T13:48:27.396Z,-0.49
2023-01-21T13:51:15.214Z,-0.51
2023-01-21T13:54:04.224Z,-0.53
2023-01-21T13:56:52.077Z,-0.57
2023-01-21T13:59:36.006Z,-0.56
2023-01-21T14:02:20.363Z,-0.62
2023-01-21T14:04:59.082Z,-0.62
2023-01-21T14:07:35.308Z,-0.64
2023-01-21T14:10:11.171Z,-0.63
2023-01-21T14:13:10.762Z,-0.66
2023-01-21T14:15:56.515Z,-0.67
2023-01-21T14:18:51.418Z,-0.68
2023-01-21T14:21:53.616Z,-0.70
2023-01-21T14:24:44.617Z,-0.73
2023-01-21T14:27:31.563Z,-0.77
2023-01-21T14:30:17.730Z,-0.79
2023-01-21T14:32:52.834Z,-0.80
2023-01-21T14:35:37.382Z,-0.85
2023-01-21T14:38:20.403Z,-0.86
2023-01-21T14:40:53.789Z,-0.85
2023-01-21T14:43:48.950Z,-0.83
2023-01-21T14:46:34.178Z,-0.87
2023-01-21T14:49:07.855Z,-0.92
2023-01-21T14:51:37.808Z,-0.96
2023-01-21T14:54:13.256Z,-0.96
2023-01-21T14:56:41.688Z,-0.91
2023-01-21T14:59:28.289Z,-0.90
2023-01-21T15:02:01.604Z,-0.88
2023-01-21T15:04:31.693Z,-0.85
2023-01-21T15:07:02.291Z,-0.82
2023-01-21T15:09:33.969Z,-0.80
2023-01-21T15:12:04.331Z,-0.78
2023-01-21T15:14:36.628Z,-0.76
2023-01-21T15:17:04.686Z,-0.74
2023-01-21T15:19:34.494Z,-0.75
2023-01-21T15:22:46.607Z,-0.77
2023-01-21T15:25:21.460Z,-0.77
2023-01-21T15:28:40.160Z,-0.77
2023-01-21T15:31:10.477Z,-0.74
2023-01-21T15:33:46.750Z,-0.71
2023-01-21T15:36:25.776Z,-0.67
2023-01-21T15:38:55.264Z,-0.66
2023-01-21T15:41:35.013Z,-0.64
2023-01-21T15:44:16.517Z,-0.64
2023-01-21T15:46:56.085Z,-0.65
2023-01-21T15:49:38.246Z,-0.69
2023-01-21T15:52:23.745Z,-0.74
2023-01-21T15:54:58.756Z,-0.76
2023-01-21T15:57:42.512Z,-0.77
2023-01-21T16:00:30.849Z,-0.81
2023-01-21T16:03:04.752Z,-0.82
2023-01-21T16:05:43.256Z,-0.82
2023-01-21T16:08:20.571Z,-0.84
2023-01-21T16:10:58.651Z,-0.81
2023-01-21T16:13:39.531Z,-0.77
2023-01-21T16:16:14.670Z,-0.76
2023-01-21T16:18:52.625Z,-0.75
2023-01-21T16:21:22.625Z,-0.74
2023-01-21T16:23:53.016Z,-0.77
2023-01-21T16:26:27.590Z,-0.79
2023-01-21T16:28:57.153Z,-0.76
2023-01-21T16:31:24.983Z,-0.77
2023-01-21T16:33:53.653Z,-0.76
2023-01-21T16:36:21.578Z,-0.78
2023-01-21T16:38:49.249Z,-0.81
2023-01-21T16:41:23.873Z,-0.80
2023-01-21T16:43:53.535Z,-0.84
2023-01-21T16:46:26.682Z,-0.87
2023-01-21T16:49:06.660Z,-0.88
2023-01-21T16:51:42.875Z,-0.87
2023-01-21T16:54:32.571Z,-0.84
2023-01-21T16:57:24.686Z,-0.86
2023-01-21T16:59:55.957Z,-0.84
2023-01-21T17:02:28.578Z,-0.82
2023-01-21T17:04:58.960Z,-0.78
2023-01-21T17:07:29.281Z,-0.79
2023-01-21T17:10:03.716Z,-0.79
2023-01-21T17:12:35.970Z,-0.78
2023-01-21T17:15:17.790Z,-0.78
2023-01-21T17:17:57.622Z,-0.81
2023-01-21T17:20:44.020Z,-0.82
2023-01-21T17:23:18.141Z,-0.81
2023-01-21T17:25:52.774Z,-0.78
2023-01-21T17:28:30.595Z,-0.74
2023-01-21T17:31:23.038Z,-0.70
2023-01-21T17:34:20.458Z,-0.72
2023-01-21T17:36:50.311Z,-0.73
2023-01-21T17:39:51.931Z,-0.78
2023-01-21T17:42:22.779Z,-0.79
2023-01-21T17:44:52.980Z,-0.78
2023-01-21T17:47:24.388Z,-0.76
2023-01-21T17:49:59.924Z,-0.73
2023-01-21T17:52:28.117Z,-0.72
2023-01-21T17:55:11.183Z,-0.68
2023-01-21T17:57:38.596Z,-0.63
2023-01-21T18:00:26.157Z,-0.64
2023-01-21T18:02:54.005Z,-0.66
2023-01-21T18:05:23.151Z,-0.68
2023-01-21T18:07:51.604Z,-0.63
2023-01-21T18:10:21.412Z,-0.63
2023-01-21T18:12:49.045Z,-0.64
2023-01-21T18:15:19.410Z,-0.65
2023-01-21T18:17:50.469Z,-0.65
2023-01-21T18:20:19.829Z,-0.63
2023-01-21T18:22:49.756Z,-0.60
2023-01-21T18:25:18.090Z,-0.59
2023-01-21T18:27:51.698Z,-0.59
2023-01-21T18:30:21.848Z,-0.59
2023-01-21T18:32:49.958Z,-0.60
2023-01-21T18:35:20.938Z,-0.60
2023-01-21T18:37:49.936Z,-0.57
2023-01-21T18:40:21.535Z,-0.55
2023-01-21T18:42:50.738Z,-0.53
2023-01-21T18:45:20.122Z,-0.52
2023-01-21T18:47:49.980Z,-0.52
2023-01-21T18:50:20.046Z,-0.54
2023-01-21T18:52:47.771Z,-0.57
2023-01-21T18:55:18.698Z,-0.55
2023-01-21T18:57:49.397Z,-0.55
2023-01-21T19:00:22.699Z,-0.53
2023-01-21T19:02:50.863Z,-0.52
2023-01-21T19:05:18.631Z,-0.49
2023-01-21T19:07:46.391Z,-0.47
2023-01-21T19:10:17.837Z,-0.46
2023-01-21T19:12:45.463Z,-0.46
2023-01-21T19:15:16.491Z,-0.48
2023-01-21T19:17:44.599Z,-0.50
2023-01-21T19:20:17.797Z,-0.51
2023-01-21T19:22:45.480Z,-0.52
2023-01-21T19:25:13.568Z,-0.52
2023-01-21T19:27:45.183Z,-0.50
2023-01-21T19:30:20.507Z,-0.48
2023-01-21T19:32:48.561Z,-0.48
2023-01-21T19:35:17.172Z,-0.48
2023-01-21T19:37:49.137Z,-0.50
2023-01-21T19:40:19.622Z,-0.51
2023-01-21T19:42:49.558Z,-0.53
2023-01-21T19:45:18.632Z,-0.52
2023-01-21T19:47:50.258Z,-0.51
2023-01-21T19:50:20.380Z,-0.51
2023-01-21T19:52:49.709Z,-0.51
2023-01-21T19:55:19.862Z,-0.51
2023-01-21T19:57:56.151Z,-0.51
2023-01-21T20:00:26.220Z,-0.45
2023-01-21T20:02:54.117Z,-0.45
2023-01-21T20:05:22.740Z,-0.47
2023-01-21T20:07:51.788Z,-0.46
2023-01-21T20:10:22.009Z,-0.47
2023-01-21T20:12:51.513Z,-0.45
2023-01-21T20:15:20.583Z,-0.48
2023-01-21T20:17:52.511Z,-0.50
2023-01-21T20:20:22.558Z,-0.46
2023-01-21T20:22:50.366Z,-0.48
2023-01-21T20:25:19.681Z,-0.45
2023-01-21T20:27:51.988Z,-0.43
2023-01-21T20:30:21.693Z,-0.40
2023-01-21T20:32:49.613Z,-0.42
2023-01-21T20:35:18.824Z,-0.38
2023-01-21T20:37:48.945Z,-0.35
2023-01-21T20:40:20.116Z,-0.31
2023-01-21T20:42:48.212Z,-0.26
2023-01-21T20:45:18.947Z,-0.22
2023-01-21T20:47:50.850Z,-0.19
2023-01-21T20:50:20.430Z,-0.21
2023-01-21T20:52:49.244Z,-0.25
2023-01-21T20:55:20.760Z,-0.25
2023-01-21T20:57:48.781Z,-0.21
2023-01-21T21:00:20.419Z,-0.21
2023-01-21T21:02:48.957Z,-0.22
2023-01-21T21:05:18.468Z,-0.23
2023-01-21T21:07:46.281Z,-0.20
2023-01-21T21:10:19.676Z,-0.16
2023-01-21T21:12:47.383Z,-0.13
2023-01-21T21:15:15.739Z,-0.13
2023-01-21T21:17:46.912Z,-0.12
2023-01-21T21:20:19.768Z,-0.12
2023-01-21T21:22:47.244Z,-0.09
2023-01-21T21:25:16.448Z,-0.11
2023-01-21T21:27:45.057Z,-0.14
2023-01-21T21:30:15.429Z,-0.15
2023-01-21T21:32:43.179Z,-0.15
2023-01-21T21:35:21.993Z,-0.13
2023-01-21T21:37:49.499Z,-0.10
2023-01-21T21:40:17.267Z,-0.13
2023-01-21T21:43:02.298Z,-0.13
2023-01-21T21:45:29.810Z,-0.09
2023-01-21T21:48:15.118Z,-0.06
2023-01-21T21:50:44.030Z,-0.05
2023-01-21T21:53:12.360Z,-0.04
2023-01-21T21:55:39.819Z,-0.02
2023-01-21T21:58:07.315Z,-0.01
2023-01-21T22:00:34.786Z,0.01
2023-01-21T22:03:02.808Z,-0.01
2023-01-21T22:05:32.982Z,-0.02
2023-01-21T22:08:01.935Z,-0.03
2023-01-21T22:10:29.444Z,-0.04
2023-01-21T22:12:57.063Z,-0.04
2023-01-21T22:15:24.559Z,-0.04
2023-01-21T22:17:52.059Z,-0.04
2023-01-21T22:20:19.847Z,-0.04
2023-01-21T22:22:47.385Z,-0.03
2023-01-21T22:25:16.522Z,-0.04
2023-01-21T22:27:44.194Z,-0.06
2023-01-21T22:30:13.558Z,-0.08
2023-01-21T22:32:41.197Z,-0.06
2023-01-21T22:35:09.391Z,-0.06
2023-01-21T22:37:36.875Z,-0.09
2023-01-21T22:40:04.924Z,-0.09
2023-01-21T22:42:33.835Z,-0.07
2023-01-21T22:45:01.323Z,-0.06
2023-01-21T22:47:31.944Z,-0.05
2023-01-21T22:49:59.454Z,-0.01
2023-01-21T22:52:28.513Z,-0.01
2023-01-21T22:54:55.997Z,-0.04
2023-01-21T22:57:23.589Z,-0.04
2023-01-21T22:59:52.461Z,-0.06
2023-01-21T23:02:19.954Z,-0.08
2023-01-21T23:04:47.460Z,-0.07
2023-01-21T23:07:15.019Z,-0.09
2023-01-21T23:09:42.491Z,-0.07
2023-01-21T23:12:18.615Z,-0.04
2023-01-21T23:14:46.365Z,-0.04
2023-01-21T23:17:16.610Z,-0.06
2023-01-21T23:19:44.156Z,-0.05
2023-01-21T23:22:11.944Z,-0.03
2023-01-21T23:24:39.499Z,-0.04
2023-01-21T23:27:07.018Z,-0.05
2023-01-21T23:29:34.582Z,-0.05
2023-01-21T23:32:02.350Z,-0.06
2023-01-21T23:34:31.462Z,-0.03
2023-01-21T23:36:59.040Z,-0.01
2023-01-21T23:39:26.541Z,-0.03
2023-01-21T23:41:54.904Z,-0.02
2023-01-21T23:44:25.341Z,0.01
2023-01-21T23:46:53.086Z,0.01
2023-01-21T23:49:21.051Z,-0.02
2023-01-21T23:51:49.932Z,-0.01
2023-01-21T23:54:17.581Z,0.00
2023-01-21T23:56:45.062Z,-0.02
2023-01-21T23:59:12.626Z,-0.02
